createdAt,value
2017-02-21T00:00:26.695Z,11.52
2017-02-21T00:01:08.362Z,11.52
2017-02-21T00:01:50.071Z,11.47
2017-02-21T00:02:31.758Z,11.49
2017-02-21T00:03:13.442Z,11.47
2017-02-21T00:03:54.989Z,11.49
2017-02-21T00:04:36.748Z,11.49
2017-02-21T00:05:18.397Z,11.52
2017-02-21T00:06:00.094Z,11.49
2017-02-21T00:06:41.845Z,11.55
2017-02-21T00:07:23.304Z,11.44
2017-02-21T00:08:04.901Z,11.55
2017-02-21T00:08:46.606Z,11.55
2017-02-21T00:09:28.267Z,11.49
2017-02-21T00:10:09.869Z,11.52
2017-02-21T00:10:51.568Z,11.52
2017-02-21T00:11:33.248Z,11.47
2017-02-21T00:12:14.924Z,11.47
2017-02-21T00:12:56.591Z,11.36
2017-02-21T00:13:38.264Z,11.39
2017-02-21T00:14:19.928Z,11.52
2017-02-21T00:15:01.731Z,11.51
2017-02-21T00:15:43.441Z,11.4
2017-02-21T00:17:38.140Z,11.42
2017-02-21T00:18:19.798Z,11.46
2017-02-21T00:20:14.547Z,11.42
2017-02-21T00:20:56.338Z,11.43
2017-02-21T00:21:38.036Z,11.4
2017-02-21T00:22:19.759Z,11.43
2017-02-21T00:23:01.509Z,11.4
2017-02-21T00:24:56.310Z,11.36
2017-02-21T00:25:38.046Z,11.44
2017-02-21T00:26:19.775Z,11.43
2017-02-21T00:27:01.450Z,11.43
2017-02-21T00:27:43.164Z,11.39
2017-02-21T00:28:24.924Z,11.43
2017-02-21T00:29:06.688Z,11.4
2017-02-21T00:29:48.449Z,11.4
2017-02-21T00:31:37.795Z,11.4
2017-02-21T00:33:53.166Z,11.4
2017-02-21T00:34:34.925Z,11.37
2017-02-21T00:35:16.523Z,11.37
2017-02-21T00:35:58.132Z,11.44
2017-02-21T00:36:39.842Z,11.4
2017-02-21T00:37:21.574Z,11.42
2017-02-21T00:38:03.253Z,11.42
2017-02-21T00:38:44.957Z,11.35
2017-02-21T00:39:26.694Z,11.35
2017-02-21T00:40:08.464Z,11.4
2017-02-21T00:40:50.283Z,11.43
2017-02-21T00:41:32.046Z,11.42
2017-02-21T00:42:13.824Z,11.37
2017-02-21T00:42:55.508Z,11.35
2017-02-21T00:43:37.194Z,11.35
2017-02-21T00:44:18.588Z,11.33
2017-02-21T00:45:00.379Z,11.39
2017-02-21T00:45:42.149Z,11.37
2017-02-21T00:46:23.978Z,11.39
2017-02-21T00:47:05.673Z,11.37
2017-02-21T00:47:47.398Z,11.42
2017-02-21T00:48:28.752Z,11.43
2017-02-21T00:49:10.533Z,11.39
2017-02-21T00:49:52.256Z,11.36
2017-02-21T00:50:34.022Z,11.33
2017-02-21T00:51:15.784Z,11.37
2017-02-21T00:51:57.499Z,11.4
2017-02-21T00:52:39.200Z,11.39
2017-02-21T00:53:20.974Z,11.35
2017-02-21T00:54:02.788Z,11.4
2017-02-21T00:54:44.472Z,11.39
2017-02-21T00:55:26.236Z,11.4
2017-02-21T00:56:07.962Z,11.4
2017-02-21T00:56:49.742Z,11.39
2017-02-21T00:58:39.117Z,11.4
2017-02-21T01:00:28.385Z,11.42
2017-02-21T01:01:10.021Z,11.37
2017-02-21T01:01:51.618Z,11.36
2017-02-21T01:02:33.064Z,11.36
2017-02-21T01:03:14.748Z,11.33
2017-02-21T01:03:56.077Z,11.35
2017-02-21T01:04:37.294Z,11.35
2017-02-21T01:05:18.967Z,11.39
2017-02-21T01:07:08.237Z,11.37
2017-02-21T01:07:49.626Z,11.32
2017-02-21T01:08:31.371Z,11.42
2017-02-21T01:09:13.030Z,11.35
2017-02-21T01:09:54.696Z,11.35
2017-02-21T01:10:36.372Z,11.32
2017-02-21T01:12:36.382Z,11.37
2017-02-21T01:13:18.219Z,11.39
2017-02-21T01:14:00.020Z,11.39
2017-02-21T01:14:41.846Z,11.37
2017-02-21T01:16:57.163Z,11.35
2017-02-21T01:17:38.972Z,11.36
2017-02-21T01:18:20.591Z,11.33
2017-02-21T01:20:20.602Z,11.4
2017-02-21T01:21:02.393Z,11.35
2017-02-21T01:22:57.172Z,11.36
2017-02-21T01:23:38.923Z,11.25
2017-02-21T01:24:20.499Z,11.35
2017-02-21T01:25:02.254Z,11.35
2017-02-21T01:25:43.863Z,11.29
2017-02-21T01:26:25.606Z,11.32
2017-02-21T01:27:07.372Z,11.29
2017-02-21T01:27:49.022Z,11.35
2017-02-21T01:28:30.642Z,11.29
2017-02-21T01:30:46.096Z,11.33
2017-02-21T01:32:25.065Z,11.37
2017-02-21T01:33:06.829Z,11.33
2017-02-21T01:35:01.448Z,11.24
2017-02-21T01:35:43.237Z,11.35
2017-02-21T01:36:24.757Z,11.29
2017-02-21T01:37:06.257Z,11.32
2017-02-21T01:37:47.899Z,11.36
2017-02-21T01:39:47.961Z,11.27
2017-02-21T01:40:29.586Z,11.27
2017-02-21T01:41:11.345Z,11.27
2017-02-21T01:43:06.096Z,11.24
2017-02-21T01:43:47.793Z,11.25
2017-02-21T01:44:29.471Z,11.27
2017-02-21T01:45:11.189Z,11.19
2017-02-21T01:45:52.947Z,11.27
2017-02-21T01:46:34.590Z,11.18
2017-02-21T01:47:16.412Z,11.25
2017-02-21T01:47:58.181Z,11.19
2017-02-21T01:48:39.967Z,11.27
2017-02-21T01:49:21.679Z,11.22
2017-02-21T01:50:03.272Z,11.28
2017-02-21T01:50:44.895Z,11.25
2017-02-21T01:51:26.574Z,11.18
2017-02-21T01:52:08.376Z,11.27
2017-02-21T01:52:50.049Z,11.19
2017-02-21T01:53:31.672Z,11.22
2017-02-21T01:54:13.400Z,11.18
2017-02-21T01:54:55.153Z,11.29
2017-02-21T01:57:10.426Z,11.22
2017-02-21T01:57:52.176Z,11.25
2017-02-21T01:58:34.000Z,11.18
2017-02-21T01:59:15.588Z,11.21
2017-02-21T02:01:15.511Z,11.22
2017-02-21T02:01:56.050Z,11.14
2017-02-21T02:02:36.587Z,11.18
2017-02-21T02:03:17.121Z,11.14
2017-02-21T02:03:57.657Z,11.19
2017-02-21T02:04:38.199Z,11.21
2017-02-21T02:05:18.739Z,11.17
2017-02-21T02:05:59.278Z,11.15
2017-02-21T02:06:39.817Z,11.22
2017-02-21T02:07:20.403Z,11.18
2017-02-21T02:08:00.938Z,11.24
2017-02-21T02:08:41.475Z,11.21
2017-02-21T02:09:22.011Z,11.18
2017-02-21T02:10:02.535Z,11.22
2017-02-21T02:10:43.074Z,11.14
2017-02-21T02:11:23.613Z,11.21
2017-02-21T02:12:04.155Z,11.17
2017-02-21T02:12:44.692Z,11.22
2017-02-21T02:13:25.224Z,11.22
2017-02-21T02:14:05.762Z,11.21
2017-02-21T02:14:46.291Z,11.19
2017-02-21T02:15:26.831Z,11.17
2017-02-21T02:16:07.378Z,11.15
2017-02-21T02:16:47.907Z,11.18
2017-02-21T02:17:28.449Z,11.21
2017-02-21T02:18:08.990Z,11.14
2017-02-21T02:18:49.533Z,11.25
2017-02-21T02:19:30.068Z,11.18
2017-02-21T02:20:10.604Z,11.21
2017-02-21T02:20:51.143Z,11.1
2017-02-21T02:21:31.683Z,11.21
2017-02-21T02:22:12.223Z,11.14
2017-02-21T02:22:52.764Z,11.19
2017-02-21T02:23:33.307Z,11.22
2017-02-21T02:24:13.844Z,11.22
2017-02-21T02:24:54.387Z,11.21
2017-02-21T02:25:34.922Z,11.14
2017-02-21T02:26:15.459Z,11.22
2017-02-21T02:26:55.997Z,11.21
2017-02-21T02:27:36.530Z,11.17
2017-02-21T02:28:17.071Z,11.14
2017-02-21T02:28:57.610Z,11.21
2017-02-21T02:29:38.147Z,11.21
2017-02-21T02:30:18.687Z,11.19
2017-02-21T02:30:59.222Z,11.18
2017-02-21T02:31:39.752Z,11.25
2017-02-21T02:32:20.287Z,11.18
2017-02-21T02:33:00.832Z,11.25
2017-02-21T02:33:41.372Z,11.21
2017-02-21T02:34:21.913Z,11.14
2017-02-21T02:35:02.448Z,11.21
2017-02-21T02:35:42.988Z,11.21
2017-02-21T02:36:23.525Z,11.22
2017-02-21T02:37:04.060Z,11.17
2017-02-21T02:37:44.598Z,11.21
2017-02-21T02:38:25.127Z,11.17
2017-02-21T02:39:05.664Z,11.21
2017-02-21T02:39:46.201Z,11.14
2017-02-21T02:40:26.757Z,11.22
2017-02-21T02:41:07.293Z,11.25
2017-02-21T02:41:47.830Z,11.22
2017-02-21T02:42:28.366Z,11.1
2017-02-21T02:43:08.897Z,11.18
2017-02-21T02:43:49.438Z,11.18
2017-02-21T02:44:29.975Z,11.18
2017-02-21T02:45:10.513Z,11.28
2017-02-21T02:45:51.050Z,11.1
2017-02-21T02:46:31.589Z,11.22
2017-02-21T02:47:12.118Z,11.21
2017-02-21T02:47:52.660Z,11.19
2017-02-21T02:48:33.195Z,11.11
2017-02-21T02:49:13.735Z,11.25
2017-02-21T02:49:54.274Z,11.18
2017-02-21T02:50:34.808Z,11.1
2017-02-21T02:51:15.353Z,11.18
2017-02-21T02:51:55.891Z,11.25
2017-02-21T02:52:36.431Z,11.18
2017-02-21T02:53:16.970Z,11.21
2017-02-21T02:53:57.513Z,11.14
2017-02-21T02:54:38.051Z,11.11
2017-02-21T02:55:18.623Z,11.11
2017-02-21T02:55:59.165Z,11.06
2017-02-21T02:56:39.705Z,11.07
2017-02-21T02:57:20.241Z,11.21
2017-02-21T02:58:00.784Z,11.14
2017-02-21T02:58:41.323Z,11.11
2017-02-21T02:59:21.858Z,11.06
2017-02-21T03:00:02.400Z,11.14
2017-02-21T03:00:42.928Z,11.06
2017-02-21T03:01:23.471Z,11.18
2017-02-21T03:02:04.010Z,11.03
2017-02-21T03:02:44.549Z,11.14
2017-02-21T03:03:25.085Z,11.07
2017-02-21T03:04:05.621Z,11.06
2017-02-21T03:04:46.163Z,11.17
2017-02-21T03:05:26.705Z,11.15
2017-02-21T03:06:07.243Z,11.14
2017-02-21T03:06:47.781Z,11.11
2017-02-21T03:07:28.315Z,11.11
2017-02-21T03:08:08.852Z,11.1
2017-02-21T03:08:49.389Z,11.11
2017-02-21T03:09:29.930Z,11.21
2017-02-21T03:10:10.473Z,11.1
2017-02-21T03:10:51.008Z,11.14
2017-02-21T03:11:31.549Z,11.17
2017-02-21T03:12:12.082Z,11.1
2017-02-21T03:12:52.615Z,11.07
2017-02-21T03:13:33.157Z,11.07
2017-02-21T03:14:13.694Z,11.17
2017-02-21T03:14:54.240Z,11.07
2017-02-21T03:15:34.775Z,11.09
2017-02-21T03:16:15.309Z,11.07
2017-02-21T03:16:55.845Z,11.04
2017-02-21T03:17:36.385Z,11.06
2017-02-21T03:18:16.928Z,11.04
2017-02-21T03:18:57.461Z,11.03
2017-02-21T03:19:37.998Z,10.96
2017-02-21T03:20:18.537Z,11.04
2017-02-21T03:20:59.076Z,11.03
2017-02-21T03:21:39.614Z,11.02
2017-02-21T03:22:20.146Z,11
2017-02-21T03:23:00.683Z,10.99
2017-02-21T03:23:41.216Z,11.02
2017-02-21T03:24:21.756Z,11.07
2017-02-21T03:25:02.292Z,11.03
2017-02-21T03:25:42.833Z,11.03
2017-02-21T03:26:23.371Z,11.03
2017-02-21T03:27:03.906Z,11.03
2017-02-21T03:27:44.443Z,11.06
2017-02-21T03:28:25.057Z,10.99
2017-02-21T03:29:05.595Z,11.04
2017-02-21T03:29:46.135Z,10.96
2017-02-21T03:30:26.672Z,11.03
2017-02-21T03:31:07.205Z,11.03
2017-02-21T03:31:47.747Z,11.04
2017-02-21T03:32:28.283Z,10.94
2017-02-21T03:33:08.821Z,10.97
2017-02-21T03:33:49.350Z,11.07
2017-02-21T03:34:29.892Z,11.02
2017-02-21T03:35:10.428Z,11.03
2017-02-21T03:35:50.970Z,11.04
2017-02-21T03:36:31.503Z,11.02
2017-02-21T03:37:12.041Z,11.07
2017-02-21T03:37:52.580Z,11.03
2017-02-21T03:38:33.117Z,11.03
2017-02-21T03:39:13.651Z,11
2017-02-21T03:39:54.185Z,11
2017-02-21T03:40:34.726Z,11
2017-02-21T03:41:15.260Z,11.03
2017-02-21T03:41:55.803Z,11.04
2017-02-21T03:42:36.333Z,11.03
2017-02-21T03:43:16.866Z,11.03
2017-02-21T03:43:57.408Z,10.99
2017-02-21T03:44:37.946Z,11.02
2017-02-21T03:45:18.482Z,10.94
2017-02-21T03:45:59.016Z,10.97
2017-02-21T03:46:39.547Z,10.96
2017-02-21T03:47:20.082Z,10.96
2017-02-21T03:48:00.625Z,11
2017-02-21T03:48:41.166Z,10.94
2017-02-21T03:49:21.725Z,10.97
2017-02-21T03:50:02.261Z,11
2017-02-21T03:50:42.795Z,10.99
2017-02-21T03:51:23.332Z,10.96
2017-02-21T03:52:03.863Z,10.94
2017-02-21T03:52:44.400Z,10.94
2017-02-21T03:53:24.936Z,10.91
2017-02-21T03:54:05.477Z,10.92
2017-02-21T03:54:46.016Z,10.92
2017-02-21T03:55:28.359Z,10.88
2017-02-21T03:56:08.894Z,10.84
2017-02-21T03:56:49.438Z,10.86
2017-02-21T03:57:29.975Z,10.82
2017-02-21T03:58:10.515Z,10.86
2017-02-21T03:58:51.053Z,10.84
2017-02-21T03:59:31.591Z,10.82
2017-02-21T04:00:12.133Z,10.89
2017-02-21T04:00:52.666Z,10.85
2017-02-21T04:01:33.203Z,10.89
2017-02-21T04:02:13.743Z,10.85
2017-02-21T04:02:54.285Z,10.88
2017-02-21T04:03:34.821Z,10.86
2017-02-21T04:04:15.360Z,10.88
2017-02-21T04:04:55.897Z,10.91
2017-02-21T04:05:36.433Z,10.92
2017-02-21T04:06:18.862Z,10.82
2017-02-21T04:06:59.406Z,10.85
2017-02-21T04:07:39.945Z,10.91
2017-02-21T04:08:20.474Z,10.94
2017-02-21T04:09:01.008Z,10.88
2017-02-21T04:09:41.550Z,10.88
2017-02-21T04:10:22.089Z,10.86
2017-02-21T04:11:02.633Z,10.91
2017-02-21T04:11:43.168Z,10.92
2017-02-21T04:12:23.709Z,10.88
2017-02-21T04:13:04.243Z,10.85
2017-02-21T04:13:44.775Z,10.88
2017-02-21T04:14:25.315Z,10.91
2017-02-21T04:15:05.858Z,10.91
2017-02-21T04:15:46.395Z,10.85
2017-02-21T04:16:26.937Z,10.86
2017-02-21T04:17:07.475Z,10.82
2017-02-21T04:17:48.010Z,10.96
2017-02-21T04:18:28.550Z,10.88
2017-02-21T04:19:09.081Z,10.85
2017-02-21T04:19:49.682Z,10.82
2017-02-21T04:20:30.220Z,10.84
2017-02-21T04:21:10.766Z,10.88
2017-02-21T04:21:51.313Z,10.85
2017-02-21T04:22:31.850Z,10.85
2017-02-21T04:23:12.389Z,10.88
2017-02-21T04:23:52.922Z,10.88
2017-02-21T04:24:33.457Z,10.89
2017-02-21T04:25:13.989Z,10.88
2017-02-21T04:25:54.535Z,10.86
2017-02-21T04:26:35.076Z,10.82
2017-02-21T04:27:15.613Z,10.92
2017-02-21T04:27:56.139Z,10.82
2017-02-21T04:28:36.670Z,10.92
2017-02-21T04:29:17.204Z,11
2017-02-21T04:29:57.759Z,10.91
2017-02-21T04:30:38.300Z,10.97
2017-02-21T04:31:18.836Z,10.91
2017-02-21T04:31:59.380Z,10.88
2017-02-21T04:32:39.926Z,10.86
2017-02-21T04:33:20.464Z,10.96
2017-02-21T04:34:00.996Z,10.97
2017-02-21T04:34:41.537Z,10.92
2017-02-21T04:35:22.075Z,10.94
2017-02-21T04:36:02.614Z,10.92
2017-02-21T04:36:43.159Z,10.96
2017-02-21T04:37:23.693Z,10.94
2017-02-21T04:38:04.234Z,10.96
2017-02-21T04:38:44.772Z,10.94
2017-02-21T04:39:25.310Z,10.96
2017-02-21T04:40:05.850Z,11
2017-02-21T04:40:46.381Z,10.94
2017-02-21T04:41:26.914Z,10.99
2017-02-21T04:42:07.451Z,10.94
2017-02-21T04:42:47.971Z,10.88
2017-02-21T04:43:28.524Z,10.97
2017-02-21T04:44:09.054Z,10.92
2017-02-21T04:44:49.605Z,10.99
2017-02-21T04:45:30.133Z,10.86
2017-02-21T04:46:10.687Z,10.94
2017-02-21T04:46:51.226Z,10.85
2017-02-21T04:47:31.770Z,10.84
2017-02-21T04:48:12.326Z,10.92
2017-02-21T04:48:52.853Z,10.82
2017-02-21T04:49:33.395Z,10.82
2017-02-21T04:50:13.933Z,10.85
2017-02-21T04:50:54.464Z,10.82
2017-02-21T04:51:35.001Z,10.92
2017-02-21T04:52:15.544Z,10.92
2017-02-21T04:52:56.081Z,10.94
2017-02-21T04:53:36.624Z,10.88
2017-02-21T04:54:17.177Z,10.96
2017-02-21T04:54:57.768Z,10.97
2017-02-21T04:55:38.314Z,10.94
2017-02-21T04:56:18.856Z,10.86
2017-02-21T04:56:59.403Z,10.82
2017-02-21T04:57:39.944Z,10.92
2017-02-21T04:58:20.471Z,10.88
2017-02-21T04:59:01.014Z,10.91
2017-02-21T04:59:41.556Z,10.84
2017-02-21T05:00:22.094Z,10.91
2017-02-21T05:01:02.624Z,10.89
2017-02-21T05:01:43.164Z,10.91
2017-02-21T05:02:23.700Z,10.84
2017-02-21T05:03:04.250Z,10.85
2017-02-21T05:03:44.785Z,10.85
2017-02-21T05:04:25.331Z,10.84
2017-02-21T05:05:05.872Z,10.84
2017-02-21T05:05:46.418Z,10.89
2017-02-21T05:06:26.947Z,10.81
2017-02-21T05:07:07.511Z,10.82
2017-02-21T05:07:48.054Z,10.81
2017-02-21T05:08:28.596Z,10.82
2017-02-21T05:09:09.130Z,10.82
2017-02-21T05:09:49.675Z,10.82
2017-02-21T05:10:30.212Z,10.78
2017-02-21T05:11:10.751Z,10.86
2017-02-21T05:11:51.290Z,10.84
2017-02-21T05:12:31.827Z,10.78
2017-02-21T05:13:12.374Z,10.84
2017-02-21T05:13:52.902Z,10.78
2017-02-21T05:14:33.500Z,10.81
2017-02-21T05:15:14.074Z,10.79
2017-02-21T05:15:54.615Z,10.84
2017-02-21T05:16:35.157Z,10.78
2017-02-21T05:17:15.695Z,10.79
2017-02-21T05:17:56.238Z,10.85
2017-02-21T05:18:36.777Z,10.76
2017-02-21T05:19:17.318Z,10.81
2017-02-21T05:19:57.841Z,10.82
2017-02-21T05:20:38.382Z,10.84
2017-02-21T05:21:18.918Z,10.81
2017-02-21T05:21:59.462Z,10.85
2017-02-21T05:22:40.004Z,10.82
2017-02-21T05:23:20.537Z,10.74
2017-02-21T05:24:01.080Z,10.78
2017-02-21T05:24:41.614Z,10.81
2017-02-21T05:25:22.160Z,10.81
2017-02-21T05:26:02.694Z,10.82
2017-02-21T05:26:43.253Z,10.79
2017-02-21T05:27:23.799Z,10.82
2017-02-21T05:28:04.337Z,10.82
2017-02-21T05:28:44.877Z,10.79
2017-02-21T05:29:25.426Z,10.88
2017-02-21T05:30:05.961Z,10.81
2017-02-21T05:30:46.492Z,10.84
2017-02-21T05:31:27.149Z,10.86
2017-02-21T05:32:07.724Z,10.85
2017-02-21T05:32:48.255Z,10.84
2017-02-21T05:33:28.793Z,10.84
2017-02-21T05:34:09.330Z,10.78
2017-02-21T05:34:49.875Z,10.81
2017-02-21T05:35:30.406Z,10.79
2017-02-21T05:36:10.957Z,10.74
2017-02-21T05:36:51.488Z,10.78
2017-02-21T05:37:32.007Z,10.81
2017-02-21T05:38:12.544Z,10.82
2017-02-21T05:38:53.083Z,10.78
2017-02-21T05:39:33.645Z,10.79
2017-02-21T05:40:14.187Z,10.82
2017-02-21T05:40:54.728Z,10.74
2017-02-21T05:41:35.259Z,10.74
2017-02-21T05:42:15.855Z,10.78
2017-02-21T05:42:56.376Z,10.92
2017-02-21T05:43:36.918Z,10.81
2017-02-21T05:44:17.459Z,10.82
2017-02-21T05:44:58.005Z,10.86
2017-02-21T05:45:38.549Z,10.84
2017-02-21T05:46:19.088Z,10.81
2017-02-21T05:46:59.629Z,10.84
2017-02-21T05:47:40.177Z,10.81
2017-02-21T05:48:20.715Z,10.78
2017-02-21T05:49:01.260Z,10.76
2017-02-21T05:49:41.794Z,10.82
2017-02-21T05:50:22.336Z,10.89
2017-02-21T05:51:02.871Z,10.71
2017-02-21T05:51:43.403Z,10.85
2017-02-21T05:52:23.950Z,10.84
2017-02-21T05:53:04.487Z,10.74
2017-02-21T05:53:45.037Z,10.86
2017-02-21T05:54:25.577Z,10.84
2017-02-21T05:55:06.116Z,10.76
2017-02-21T05:55:46.653Z,10.76
2017-02-21T05:56:27.194Z,10.79
2017-02-21T05:57:07.726Z,10.82
2017-02-21T05:57:48.271Z,10.73
2017-02-21T05:58:28.814Z,10.79
2017-02-21T05:59:09.357Z,10.79
2017-02-21T05:59:49.882Z,10.81
2017-02-21T06:00:30.425Z,10.84
2017-02-21T06:01:10.958Z,10.82
2017-02-21T06:01:51.487Z,10.76
2017-02-21T06:02:32.057Z,10.64
2017-02-21T06:03:12.572Z,10.73
2017-02-21T06:03:53.104Z,10.67
2017-02-21T06:04:33.642Z,10.71
2017-02-21T06:05:14.178Z,10.63
2017-02-21T06:05:54.717Z,10.63
2017-02-21T06:06:35.255Z,10.61
2017-02-21T06:07:15.785Z,10.64
2017-02-21T06:07:56.321Z,10.66
2017-02-21T06:08:36.869Z,10.61
2017-02-21T06:09:17.416Z,10.63
2017-02-21T06:09:57.960Z,10.61
2017-02-21T06:10:38.496Z,10.66
2017-02-21T06:11:19.038Z,10.63
2017-02-21T06:11:59.562Z,10.64
2017-02-21T06:12:40.103Z,10.64
2017-02-21T06:13:20.627Z,10.59
2017-02-21T06:14:01.183Z,10.63
2017-02-21T06:14:41.719Z,10.64
2017-02-21T06:15:22.256Z,10.59
2017-02-21T06:16:02.816Z,10.63
2017-02-21T06:16:43.360Z,10.63
2017-02-21T06:17:23.907Z,10.67
2017-02-21T06:18:04.446Z,10.63
2017-02-21T06:18:44.989Z,10.66
2017-02-21T06:19:25.513Z,10.64
2017-02-21T06:20:06.073Z,10.63
2017-02-21T06:20:46.605Z,10.67
2017-02-21T06:21:27.147Z,10.66
2017-02-21T06:22:07.683Z,10.63
2017-02-21T06:22:48.220Z,10.63
2017-02-21T06:23:28.779Z,10.67
2017-02-21T06:24:09.301Z,10.52
2017-02-21T06:24:49.840Z,10.59
2017-02-21T06:25:30.381Z,10.61
2017-02-21T06:26:10.908Z,10.64
2017-02-21T06:26:51.452Z,10.56
2017-02-21T06:27:32.000Z,10.55
2017-02-21T06:28:12.503Z,10.51
2017-02-21T06:28:53.044Z,10.53
2017-02-21T06:29:33.582Z,10.55
2017-02-21T06:30:14.110Z,10.59
2017-02-21T06:30:57.198Z,10.53
2017-02-21T06:31:37.748Z,10.48
2017-02-21T06:32:18.961Z,10.55
2017-02-21T06:32:59.507Z,10.47
2017-02-21T06:34:58.617Z,10.48
2017-02-21T06:35:39.134Z,10.47
2017-02-21T06:36:19.677Z,10.45
2017-02-21T06:37:00.226Z,10.52
2017-02-21T06:37:40.730Z,10.44
2017-02-21T06:38:21.319Z,10.36
2017-02-21T06:39:01.860Z,10.48
2017-02-21T06:39:42.393Z,10.41
2017-02-21T06:40:22.927Z,10.45
2017-02-21T06:41:03.467Z,10.41
2017-02-21T06:41:43.987Z,10.48
2017-02-21T06:42:24.529Z,10.47
2017-02-21T06:43:05.080Z,10.47
2017-02-21T06:43:45.593Z,10.47
2017-02-21T06:44:26.126Z,10.44
2017-02-21T06:45:06.661Z,10.42
2017-02-21T06:45:47.191Z,10.38
2017-02-21T06:46:27.726Z,10.44
2017-02-21T06:47:08.266Z,10.45
2017-02-21T06:47:48.797Z,10.4
2017-02-21T06:48:29.345Z,10.41
2017-02-21T06:49:09.877Z,10.42
2017-02-21T06:49:50.415Z,10.51
2017-02-21T06:50:30.934Z,10.47
2017-02-21T06:51:11.468Z,10.52
2017-02-21T06:51:52.000Z,10.41
2017-02-21T06:52:32.550Z,10.52
2017-02-21T06:53:13.085Z,10.41
2017-02-21T06:53:53.619Z,10.41
2017-02-21T06:54:34.157Z,10.44
2017-02-21T06:55:14.727Z,10.48
2017-02-21T06:55:55.246Z,10.48
2017-02-21T06:56:35.766Z,10.51
2017-02-21T06:57:16.303Z,10.52
2017-02-21T06:57:56.844Z,10.42
2017-02-21T06:58:37.352Z,10.42
2017-02-21T06:59:17.890Z,10.53
2017-02-21T06:59:58.433Z,10.52
2017-02-21T07:00:38.980Z,10.55
2017-02-21T07:01:19.527Z,10.48
2017-02-21T07:02:00.067Z,10.55
2017-02-21T07:02:40.597Z,10.51
2017-02-21T07:03:21.137Z,10.51
2017-02-21T07:04:01.662Z,10.47
2017-02-21T07:04:42.214Z,10.4
2017-02-21T07:05:22.750Z,10.56
2017-02-21T07:06:03.291Z,10.4
2017-02-21T07:06:43.823Z,10.38
2017-02-21T07:07:24.361Z,10.4
2017-02-21T07:08:04.901Z,10.36
2017-02-21T07:08:45.442Z,10.4
2017-02-21T07:09:25.973Z,10.36
2017-02-21T07:10:06.505Z,10.4
2017-02-21T07:10:47.052Z,10.45
2017-02-21T07:11:27.585Z,10.41
2017-02-21T07:12:08.116Z,10.42
2017-02-21T07:12:48.654Z,10.47
2017-02-21T07:13:29.203Z,10.52
2017-02-21T07:14:09.748Z,10.52
2017-02-21T07:14:50.281Z,10.47
2017-02-21T07:15:31.779Z,10.48
2017-02-21T07:16:12.292Z,10.55
2017-02-21T07:16:52.811Z,10.55
2017-02-21T07:17:33.342Z,10.55
2017-02-21T07:18:13.874Z,10.53
2017-02-21T07:18:54.406Z,10.56
2017-02-21T07:19:34.937Z,10.52
2017-02-21T07:20:15.465Z,10.53
2017-02-21T07:20:56.000Z,10.64
2017-02-21T07:21:36.538Z,10.64
2017-02-21T07:22:17.076Z,10.66
2017-02-21T07:22:57.583Z,10.61
2017-02-21T07:23:38.136Z,10.64
2017-02-21T07:24:18.657Z,10.64
2017-02-21T07:24:59.196Z,10.68
2017-02-21T07:25:39.728Z,10.63
2017-02-21T07:26:20.269Z,10.59
2017-02-21T07:27:00.785Z,10.59
2017-02-21T07:27:41.320Z,10.64
2017-02-21T07:28:21.851Z,10.52
2017-02-21T07:29:02.388Z,10.56
2017-02-21T07:29:42.925Z,10.51
2017-02-21T07:30:23.443Z,10.53
2017-02-21T07:31:03.971Z,10.64
2017-02-21T07:31:44.506Z,10.63
2017-02-21T07:32:25.040Z,10.6
2017-02-21T07:33:05.576Z,10.63
2017-02-21T07:33:46.110Z,10.67
2017-02-21T07:34:26.644Z,10.61
2017-02-21T07:35:07.174Z,10.64
2017-02-21T07:35:47.714Z,10.68
2017-02-21T07:36:28.255Z,10.63
2017-02-21T07:37:08.792Z,10.67
2017-02-21T07:37:49.332Z,10.61
2017-02-21T07:38:29.872Z,10.67
2017-02-21T07:39:10.400Z,10.66
2017-02-21T07:39:50.938Z,10.56
2017-02-21T07:40:31.477Z,10.53
2017-02-21T07:41:12.005Z,10.48
2017-02-21T07:41:52.544Z,10.47
2017-02-21T07:42:33.085Z,10.52
2017-02-21T07:43:13.617Z,10.55
2017-02-21T07:43:54.156Z,10.59
2017-02-21T07:44:34.763Z,10.48
2017-02-21T07:45:15.302Z,10.48
2017-02-21T07:45:55.833Z,10.53
2017-02-21T07:46:36.370Z,10.48
2017-02-21T07:47:16.906Z,10.56
2017-02-21T07:47:57.438Z,10.48
2017-02-21T07:48:37.977Z,10.48
2017-02-21T07:49:18.515Z,10.45
2017-02-21T07:49:59.050Z,10.48
2017-02-21T07:50:39.585Z,10.55
2017-02-21T07:51:20.117Z,10.53
2017-02-21T07:52:00.664Z,10.56
2017-02-21T07:52:41.181Z,10.52
2017-02-21T07:53:21.719Z,10.56
2017-02-21T07:54:02.255Z,10.63
2017-02-21T07:54:42.796Z,10.63
2017-02-21T07:55:23.329Z,10.67
2017-02-21T07:56:03.857Z,10.61
2017-02-21T07:56:44.390Z,10.63
2017-02-21T07:57:24.933Z,10.64
2017-02-21T07:58:05.471Z,10.63
2017-02-21T07:58:46.007Z,10.63
2017-02-21T07:59:26.541Z,10.66
2017-02-21T08:00:07.065Z,10.64
2017-02-21T08:00:47.596Z,10.61
2017-02-21T08:01:28.124Z,10.63
2017-02-21T08:02:08.655Z,10.68
2017-02-21T08:02:49.173Z,10.67
2017-02-21T08:03:29.708Z,10.63
2017-02-21T08:04:10.245Z,10.73
2017-02-21T08:04:50.769Z,10.68
2017-02-21T08:05:31.302Z,10.67
2017-02-21T08:06:11.840Z,10.73
2017-02-21T08:06:52.362Z,10.76
2017-02-21T08:07:32.901Z,10.76
2017-02-21T08:08:13.439Z,10.76
2017-02-21T08:08:53.979Z,10.64
2017-02-21T08:09:34.509Z,10.7
2017-02-21T08:10:15.042Z,10.73
2017-02-21T08:10:55.574Z,10.74
2017-02-21T08:11:36.113Z,10.76
2017-02-21T08:12:16.652Z,10.74
2017-02-21T08:12:57.183Z,10.74
2017-02-21T08:13:37.796Z,10.84
2017-02-21T08:14:18.305Z,10.67
2017-02-21T08:14:58.842Z,10.82
2017-02-21T08:15:39.381Z,10.82
2017-02-21T08:16:20.050Z,10.81
2017-02-21T08:17:00.587Z,10.85
2017-02-21T08:17:41.122Z,10.89
2017-02-21T08:18:21.656Z,10.89
2017-02-21T08:19:02.185Z,10.92
2017-02-21T08:19:42.724Z,10.84
2017-02-21T08:20:23.252Z,10.88
2017-02-21T08:21:03.795Z,10.85
2017-02-21T08:21:44.342Z,10.91
2017-02-21T08:22:24.870Z,10.86
2017-02-21T08:23:05.392Z,10.85
2017-02-21T08:23:45.933Z,10.84
2017-02-21T08:24:26.466Z,10.89
2017-02-21T08:25:07.005Z,10.92
2017-02-21T08:25:47.546Z,10.92
2017-02-21T08:26:28.085Z,10.99
2017-02-21T08:27:08.636Z,10.94
2017-02-21T08:27:49.217Z,11.02
2017-02-21T08:28:29.775Z,11.06
2017-02-21T08:29:10.305Z,11
2017-02-21T08:29:50.843Z,11
2017-02-21T08:30:31.368Z,11.02
2017-02-21T08:31:11.892Z,11
2017-02-21T08:31:52.423Z,11.03
2017-02-21T08:32:32.964Z,11.04
2017-02-21T08:33:13.502Z,11
2017-02-21T08:33:54.044Z,11.03
2017-02-21T08:34:34.577Z,11.14
2017-02-21T08:35:15.103Z,11.07
2017-02-21T08:35:55.625Z,11.11
2017-02-21T08:36:36.166Z,11.03
2017-02-21T08:37:16.705Z,11.04
2017-02-21T08:37:57.239Z,11.17
2017-02-21T08:38:37.781Z,11.06
2017-02-21T08:39:18.305Z,11.21
2017-02-21T08:39:58.888Z,11.19
2017-02-21T08:40:39.419Z,11.22
2017-02-21T08:41:19.980Z,11.18
2017-02-21T08:42:00.526Z,11.28
2017-02-21T08:42:41.046Z,11.21
2017-02-21T08:43:21.586Z,11.28
2017-02-21T08:44:02.113Z,11.35
2017-02-21T08:44:42.650Z,11.25
2017-02-21T08:45:23.187Z,11.29
2017-02-21T08:46:03.723Z,11.27
2017-02-21T08:46:44.332Z,11.22
2017-02-21T08:47:24.866Z,11.19
2017-02-21T08:48:05.404Z,11.27
2017-02-21T08:48:45.941Z,11.28
2017-02-21T08:49:26.480Z,11.29
2017-02-21T08:50:07.008Z,11.28
2017-02-21T08:50:47.544Z,11.29
2017-02-21T08:51:28.081Z,11.27
2017-02-21T08:52:08.616Z,11.28
2017-02-21T08:52:49.150Z,11.33
2017-02-21T08:53:29.687Z,11.29
2017-02-21T08:54:10.223Z,11.28
2017-02-21T08:54:50.757Z,11.25
2017-02-21T08:55:31.290Z,11.4
2017-02-21T08:56:11.822Z,11.39
2017-02-21T08:56:52.327Z,11.4
2017-02-21T08:57:32.880Z,11.39
2017-02-21T08:58:13.415Z,11.4
2017-02-21T08:58:53.943Z,11.4
2017-02-21T08:59:34.481Z,11.4
2017-02-21T09:00:15.011Z,11.4
2017-02-21T09:00:55.596Z,11.39
2017-02-21T09:01:36.133Z,11.39
2017-02-21T09:02:16.675Z,11.43
2017-02-21T09:02:57.212Z,11.39
2017-02-21T09:03:37.747Z,11.37
2017-02-21T09:04:18.276Z,11.4
2017-02-21T09:04:58.810Z,11.44
2017-02-21T09:05:39.353Z,11.42
2017-02-21T09:06:19.890Z,11.43
2017-02-21T09:07:00.426Z,11.43
2017-02-21T09:07:40.962Z,11.42
2017-02-21T09:08:21.506Z,11.52
2017-02-21T09:09:02.042Z,11.47
2017-02-21T09:09:42.576Z,11.49
2017-02-21T09:10:23.109Z,11.54
2017-02-21T09:11:03.646Z,11.54
2017-02-21T09:11:44.184Z,11.49
2017-02-21T09:12:24.726Z,11.54